createdAt,value
2022-11-09T00:01:34.403Z,8.39
2022-11-09T00:04:02.627Z,8.08
2022-11-09T00:06:29.873Z,8.38
2022-11-09T00:08:56.775Z,7.68
2022-11-09T00:11:24.173Z,8.24
2022-11-09T00:13:50.971Z,8.11
2022-11-09T00:16:20.546Z,8.08
2022-11-09T00:18:49.826Z,7.75
2022-11-09T00:21:19.029Z,8.15
2022-11-09T00:23:45.739Z,8.82
2022-11-09T00:26:13.202Z,8.85
2022-11-09T00:28:40.452Z,8.66
2022-11-09T00:31:11.164Z,8.56
2022-11-09T00:33:38.354Z,8.38
2022-11-09T00:36:09.497Z,8.64
2022-11-09T00:38:40.367Z,8.64
2022-11-09T00:41:08.510Z,8.48
2022-11-09T00:43:35.523Z,8.65
2022-11-09T00:46:02.887Z,8.34
2022-11-09T00:48:30.060Z,8.59
2022-11-09T00:50:57.375Z,8.53
2022-11-09T00:53:25.372Z,8.71
2022-11-09T00:56:00.381Z,8.65
2022-11-09T00:58:29.319Z,8.52
2022-11-09T01:00:57.799Z,8.48
2022-11-09T01:03:25.563Z,8.41
2022-11-09T01:05:53.481Z,8.32
2022-11-09T01:08:20.135Z,8.24
2022-11-09T01:10:48.427Z,8.24
2022-11-09T01:13:17.398Z,7.98
2022-11-09T01:15:53.796Z,7.97
2022-11-09T01:18:21.380Z,7.73
2022-11-09T01:20:50.004Z,7.59
2022-11-09T01:23:18.556Z,7.32
2022-11-09T01:25:45.528Z,7.47
2022-11-09T01:28:12.745Z,7.66
2022-11-09T01:30:41.917Z,7.55
2022-11-09T01:33:11.341Z,7.49
2022-11-09T01:35:40.616Z,7.66
2022-11-09T01:38:09.299Z,7.74
2022-11-09T01:40:38.253Z,7.70
2022-11-09T01:43:19.822Z,7.71
2022-11-09T01:46:05.262Z,7.58
2022-11-09T01:48:44.028Z,7.35
2022-11-09T01:51:19.439Z,7.40
2022-11-09T01:53:50.789Z,7.49
2022-11-09T01:56:18.893Z,7.30
2022-11-09T01:58:57.892Z,7.15
2022-11-09T02:01:25.636Z,7.16
2022-11-09T02:03:59.606Z,7.17
2022-11-09T02:06:30.335Z,6.98
2022-11-09T02:09:28.095Z,7.10
2022-11-09T02:11:54.832Z,7.12
2022-11-09T02:14:23.955Z,6.99
2022-11-09T02:16:50.639Z,6.57
2022-11-09T02:19:17.194Z,6.95
2022-11-09T02:21:43.900Z,7.12
2022-11-09T02:24:11.658Z,7.11
2022-11-09T02:26:52.770Z,7.12
2022-11-09T02:29:25.423Z,6.83
2022-11-09T02:32:00.956Z,6.81
2022-11-09T02:34:28.592Z,6.91
2022-11-09T02:36:55.255Z,7.06
2022-11-09T02:39:26.488Z,7.00
2022-11-09T02:42:09.073Z,6.95
2022-11-09T02:44:40.966Z,6.65
2022-11-09T02:47:08.394Z,6.31
2022-11-09T02:49:35.099Z,5.84
2022-11-09T02:52:01.975Z,5.91
2022-11-09T02:54:28.858Z,6.21
2022-11-09T02:56:57.404Z,6.03
2022-11-09T02:59:25.627Z,6.02
2022-11-09T03:01:52.836Z,6.26
2022-11-09T03:04:21.143Z,6.36
2022-11-09T03:06:47.940Z,6.11
2022-11-09T03:09:17.662Z,5.77
2022-11-09T03:11:44.509Z,5.71
2022-11-09T03:14:13.414Z,5.77
2022-11-09T03:16:50.199Z,6.19
2022-11-09T03:19:17.595Z,5.90
2022-11-09T03:21:46.343Z,6.41
2022-11-09T03:24:13.110Z,6.71
2022-11-09T03:26:41.144Z,6.56
2022-11-09T03:29:07.883Z,6.67
2022-11-09T03:31:35.394Z,6.86
2022-11-09T03:34:05.365Z,6.69
2022-11-09T03:36:35.344Z,5.98
2022-11-09T03:39:02.131Z,5.64
2022-11-09T03:41:28.993Z,5.30
2022-11-09T03:43:55.591Z,5.61
2022-11-09T03:46:22.211Z,5.05
2022-11-09T03:48:48.828Z,5.05
2022-11-09T03:51:15.413Z,5.44
2022-11-09T03:53:41.984Z,5.12
2022-11-09T03:56:08.728Z,5.41
2022-11-09T03:58:35.347Z,5.37
2022-11-09T04:01:01.983Z,5.77
2022-11-09T04:03:28.785Z,6.00
2022-11-09T04:05:57.908Z,5.85
2022-11-09T04:08:24.718Z,6.07
2022-11-09T04:10:51.218Z,6.18
2022-11-09T04:13:18.126Z,6.11
2022-11-09T04:15:45.015Z,5.99
2022-11-09T04:18:14.922Z,5.83
2022-11-09T04:20:41.734Z,5.77
2022-11-09T04:23:12.891Z,5.73
2022-11-09T04:25:41.807Z,6.01
2022-11-09T04:28:12.187Z,6.20
2022-11-09T04:30:39.246Z,6.16
2022-11-09T04:33:06.206Z,5.86
2022-11-09T04:35:34.329Z,5.41
2022-11-09T04:38:06.538Z,4.90
2022-11-09T04:40:34.887Z,5.08
2022-11-09T04:43:03.204Z,4.85
2022-11-09T04:45:30.452Z,4.97
2022-11-09T04:47:59.182Z,4.54
2022-11-09T04:50:26.698Z,4.23
2022-11-09T04:52:53.753Z,4.32
2022-11-09T04:55:20.576Z,4.59
2022-11-09T04:57:47.127Z,4.36
2022-11-09T05:00:13.952Z,4.62
2022-11-09T05:02:40.610Z,4.77
2022-11-09T05:05:07.356Z,5.22
2022-11-09T05:07:33.969Z,4.83
2022-11-09T05:10:00.792Z,5.21
2022-11-09T05:12:27.551Z,4.93
2022-11-09T05:14:54.241Z,4.81
2022-11-09T05:17:20.893Z,4.91
2022-11-09T05:19:48.259Z,4.77
2022-11-09T05:22:34.104Z,4.78
2022-11-09T05:25:00.775Z,4.71
2022-11-09T05:27:27.445Z,4.85
2022-11-09T05:29:54.087Z,5.15
2022-11-09T05:32:20.732Z,5.14
2022-11-09T05:34:47.331Z,5.04
2022-11-09T05:37:14.047Z,5.11
2022-11-09T05:39:40.572Z,4.82
2022-11-09T05:42:07.243Z,5.02
2022-11-09T05:44:33.831Z,5.22
2022-11-09T05:47:00.421Z,5.64
2022-11-09T05:49:26.998Z,5.95
2022-11-09T05:51:53.656Z,5.95
2022-11-09T05:54:20.331Z,5.87
2022-11-09T05:56:46.972Z,5.29
2022-11-09T05:59:13.704Z,4.87
2022-11-09T06:01:40.622Z,5.40
2022-11-09T06:04:10.331Z,6.10
2022-11-09T06:06:37.080Z,6.14
2022-11-09T06:09:03.665Z,6.15
2022-11-09T06:11:30.596Z,5.99
2022-11-09T06:13:57.296Z,5.89
2022-11-09T06:16:24.029Z,5.70
2022-11-09T06:18:50.861Z,4.83
2022-11-09T06:21:17.826Z,4.89
2022-11-09T06:23:44.793Z,5.16
2022-11-09T06:26:12.348Z,5.52
2022-11-09T06:28:40.696Z,5.11
2022-11-09T06:31:10.789Z,5.33
2022-11-09T06:33:37.648Z,5.75
2022-11-09T06:36:05.472Z,5.66
2022-11-09T06:38:32.248Z,5.35
2022-11-09T06:40:59.818Z,6.01
2022-11-09T06:43:27.208Z,6.03
2022-11-09T06:45:54.292Z,5.90
2022-11-09T06:48:21.823Z,6.16
2022-11-09T06:50:48.707Z,6.00
2022-11-09T06:53:16.932Z,5.89
2022-11-09T06:55:49.131Z,5.88
2022-11-09T06:58:18.067Z,5.75
2022-11-09T07:00:45.214Z,5.90
2022-11-09T07:03:18.534Z,6.00
2022-11-09T07:05:46.380Z,6.11
2022-11-09T07:08:13.839Z,6.13
2022-11-09T07:10:40.821Z,5.80
2022-11-09T07:13:08.229Z,6.04
2022-11-09T07:15:36.679Z,6.36
2022-11-09T07:18:04.993Z,6.41
2022-11-09T07:20:32.410Z,6.51
2022-11-09T07:22:59.081Z,6.37
2022-11-09T07:25:27.541Z,6.31
2022-11-09T07:27:54.593Z,6.49
2022-11-09T07:30:21.315Z,6.71
2022-11-09T07:33:17.911Z,7.07
2022-11-09T07:35:34.660Z,7.15
2022-11-09T07:38:01.987Z,7.09
2022-11-09T07:40:29.328Z,6.26
2022-11-09T07:43:04.069Z,6.31
2022-11-09T07:45:32.909Z,6.01
2022-11-09T07:48:05.451Z,6.71
2022-11-09T07:50:33.528Z,7.01
2022-11-09T07:53:01.429Z,6.41
2022-11-09T07:55:29.748Z,6.55
2022-11-09T07:57:58.046Z,6.19
2022-11-09T08:00:26.424Z,6.79
2022-11-09T08:02:53.487Z,6.49
2022-11-09T08:05:20.118Z,6.71
2022-11-09T08:07:47.005Z,6.08
2022-11-09T08:10:14.446Z,5.82
2022-11-09T08:12:41.038Z,6.20
2022-11-09T08:15:08.229Z,6.26
2022-11-09T08:17:34.911Z,6.53
2022-11-09T08:20:01.644Z,6.83
2022-11-09T08:22:28.266Z,6.60
2022-11-09T08:24:55.025Z,6.84
2022-11-09T08:27:22.919Z,6.73
2022-11-09T08:29:49.546Z,6.18
2022-11-09T08:32:16.130Z,6.42
2022-11-09T08:34:47.016Z,6.81
2022-11-09T08:37:13.790Z,6.60
2022-11-09T08:39:40.387Z,7.25
2022-11-09T08:42:06.962Z,7.19
2022-11-09T08:44:33.660Z,6.79
2022-11-09T08:47:00.342Z,6.86
2022-11-09T08:49:27.002Z,6.78
2022-11-09T08:51:53.638Z,6.89
2022-11-09T08:54:20.166Z,6.68
2022-11-09T08:56:46.871Z,7.17
2022-11-09T08:59:13.418Z,7.00
2022-11-09T09:01:40.203Z,7.42
2022-11-09T09:04:06.861Z,6.50
2022-11-09T09:06:33.585Z,6.64
2022-11-09T09:09:00.114Z,6.77
2022-11-09T09:11:26.765Z,6.41
2022-11-09T09:13:53.269Z,6.66
2022-11-09T09:16:19.932Z,6.63
2022-11-09T09:18:48.412Z,7.35
2022-11-09T09:21:15.819Z,7.79
2022-11-09T09:23:42.599Z,7.87
2022-11-09T09:26:09.142Z,7.20
2022-11-09T09:28:35.967Z,6.96
2022-11-09T09:31:02.876Z,7.28
2022-11-09T09:33:29.468Z,7.61
2022-11-09T09:35:57.813Z,7.98
2022-11-09T09:38:28.744Z,7.66
2022-11-09T09:41:00.769Z,7.97
2022-11-09T09:43:43.499Z,8.09
2022-11-09T09:46:24.300Z,7.91
2022-11-09T09:49:00.153Z,7.63
2022-11-09T09:51:52.362Z,7.95
2022-11-09T09:54:24.132Z,8.31
2022-11-09T09:56:53.504Z,8.18
2022-11-09T09:59:51.031Z,8.71
2022-11-09T10:02:26.900Z,8.92
2022-11-09T10:05:00.650Z,8.95
2022-11-09T10:07:29.860Z,9.01
2022-11-09T10:10:13.256Z,8.90
2022-11-09T10:13:01.862Z,9.24
2022-11-09T10:15:34.163Z,9.60
2022-11-09T10:18:25.200Z,9.59
2022-11-09T10:21:15.182Z,9.30
2022-11-09T10:24:06.607Z,9.51
2022-11-09T10:26:40.763Z,9.74
2022-11-09T10:29:42.037Z,9.93
2022-11-09T10:32:16.020Z,10.47
2022-11-09T10:34:42.680Z,10.24
2022-11-09T10:37:21.087Z,10.25
2022-11-09T10:39:52.335Z,10.22
2022-11-09T10:42:37.554Z,10.20
2022-11-09T10:45:25.813Z,10.70
2022-11-09T10:48:13.012Z,10.75
2022-11-09T10:50:58.584Z,10.54
2022-11-09T10:53:43.718Z,11.15
2022-11-09T10:56:32.985Z,11.18
2022-11-09T10:59:45.123Z,11.17
2022-11-09T11:02:39.804Z,10.90
2022-11-09T11:05:27.869Z,11.04
2022-11-09T11:08:23.412Z,11.15
2022-11-09T11:11:32.619Z,11.33
2022-11-09T11:14:23.170Z,11.59
2022-11-09T11:17:45.960Z,11.46
2022-11-09T11:20:32.560Z,12.24
2022-11-09T11:23:17.758Z,11.86
2022-11-09T11:26:56.370Z,11.89
2022-11-09T11:29:45.745Z,12.41
2022-11-09T11:32:31.434Z,11.88
2022-11-09T11:35:43.895Z,12.37
2022-11-09T11:38:35.530Z,12.41
2022-11-09T11:41:20.745Z,12.62
2022-11-09T11:44:52.656Z,13.09
2022-11-09T11:48:26.063Z,12.86
2022-11-09T11:51:23.584Z,12.75
2022-11-09T11:54:27.697Z,11.91
2022-11-09T11:57:26.085Z,12.19
2022-11-09T12:00:14.011Z,12.44
2022-11-09T12:03:14.964Z,12.28
2022-11-09T12:06:21.985Z,13.15
2022-11-09T12:09:31.939Z,13.26
2022-11-09T12:12:21.795Z,13.63
2022-11-09T12:15:23.501Z,13.57
2022-11-09T12:18:36.746Z,11.91
2022-11-09T12:21:37.769Z,11.87
2022-11-09T12:24:25.799Z,12.09
2022-11-09T12:27:35.814Z,12.60
2022-11-09T12:30:29.698Z,12.30
2022-11-09T12:33:43.304Z,12.35
2022-11-09T12:36:38.861Z,12.38
2022-11-09T12:39:36.138Z,12.24
2022-11-09T12:42:34.855Z,12.86
2022-11-09T12:45:28.906Z,12.67
2022-11-09T12:48:30.877Z,12.47
2022-11-09T12:51:17.062Z,12.60
2022-11-09T12:54:11.269Z,12.78
2022-11-09T12:57:04.431Z,12.91
2022-11-09T12:59:53.407Z,12.81
2022-11-09T13:02:56.761Z,12.96
2022-11-09T13:05:43.134Z,12.86
2022-11-09T13:08:31.096Z,12.88
2022-11-09T13:11:40.284Z,12.82
2022-11-09T13:14:27.390Z,12.69
2022-11-09T13:17:38.848Z,11.91
2022-11-09T13:24:00.147Z,12.34
2022-11-09T13:26:46.833Z,12.29
2022-11-09T13:29:41.449Z,12.38
2022-11-09T13:32:29.529Z,12.02
2022-11-09T13:35:42.709Z,11.99
2022-11-09T13:38:32.088Z,11.88
2022-11-09T13:41:29.876Z,11.35
2022-11-09T13:44:23.891Z,11.80
2022-11-09T13:47:22.942Z,11.91
2022-11-09T13:50:17.350Z,12.16
2022-11-09T13:53:03.740Z,12.02
2022-11-09T13:55:48.850Z,11.75
2022-11-09T13:58:38.748Z,12.01
2022-11-09T14:01:34.336Z,12.09
2022-11-09T14:04:24.269Z,12.17
2022-11-09T14:07:24.607Z,12.39
2022-11-09T14:10:29.509Z,12.43
2022-11-09T14:13:37.634Z,12.03
2022-11-09T14:16:37.768Z,12.28
2022-11-09T14:19:47.318Z,12.51
2022-11-09T14:22:35.671Z,11.89
2022-11-09T14:25:24.381Z,11.97
2022-11-09T14:28:29.078Z,11.91
2022-11-09T14:31:28.205Z,11.74
2022-11-09T14:34:16.606Z,11.61
2022-11-09T14:37:05.791Z,11.72
2022-11-09T14:39:53.140Z,11.16
2022-11-09T14:42:42.096Z,11.42
2022-11-09T14:45:31.525Z,11.30
2022-11-09T14:48:19.226Z,11.30
2022-11-09T14:51:12.075Z,11.08
2022-11-09T14:53:59.465Z,11.02
2022-11-09T14:56:46.110Z,11.24
2022-11-09T14:59:34.698Z,10.66
2022-11-09T15:02:22.135Z,10.65
2022-11-09T15:05:07.932Z,10.71
2022-11-09T15:07:53.239Z,10.82
2022-11-09T15:10:38.882Z,10.64
2022-11-09T15:13:30.876Z,10.39
2022-11-09T15:16:26.905Z,10.51
2022-11-09T15:19:24.661Z,10.49
2022-11-09T15:22:47.070Z,10.93
2022-11-09T15:25:32.067Z,11.14
2022-11-09T15:28:21.970Z,11.09
2022-11-09T15:31:14.903Z,11.38
2022-11-09T15:34:00.824Z,11.64
2022-11-09T15:36:54.203Z,11.50
2022-11-09T15:39:39.508Z,11.55
2022-11-09T15:42:26.593Z,11.60
2022-11-09T15:45:17.707Z,11.44
2022-11-09T15:48:03.050Z,11.42
2022-11-09T15:50:48.721Z,11.28
2022-11-09T15:53:33.920Z,11.37
2022-11-09T15:56:24.362Z,11.26
2022-11-09T15:59:36.263Z,11.01
2022-11-09T16:02:21.203Z,10.93
2022-11-09T16:05:07.064Z,10.89
2022-11-09T16:07:54.131Z,10.95
2022-11-09T16:10:41.006Z,10.88
2022-11-09T16:13:26.471Z,10.79
2022-11-09T16:16:13.727Z,10.66
2022-11-09T16:18:59.212Z,10.67
2022-11-09T16:21:44.264Z,10.51
2022-11-09T16:24:30.040Z,10.56
2022-11-09T16:27:35.344Z,10.44
2022-11-09T16:30:21.803Z,10.34
2022-11-09T16:33:07.150Z,10.43
2022-11-09T16:35:54.458Z,10.33
2022-11-09T16:38:44.981Z,10.20
2022-11-09T16:41:30.672Z,10.08
2022-11-09T16:44:20.307Z,9.78
2022-11-09T16:47:09.141Z,9.49
2022-11-09T16:49:55.737Z,9.32
2022-11-09T16:52:41.235Z,9.14
2022-11-09T16:55:26.465Z,9.12
2022-11-09T16:58:11.793Z,9.16
2022-11-09T17:01:10.442Z,9.50
2022-11-09T17:03:57.608Z,9.27
2022-11-09T17:06:42.751Z,9.51
2022-11-09T17:09:27.941Z,9.86
2022-11-09T17:12:14.227Z,9.78
2022-11-09T17:14:59.767Z,9.77
2022-11-09T17:17:45.049Z,9.64
2022-11-09T17:20:30.052Z,9.53
2022-11-09T17:23:18.821Z,9.51
2022-11-09T17:26:05.763Z,9.36
2022-11-09T17:28:51.411Z,9.37
2022-11-09T17:31:38.198Z,9.23
2022-11-09T17:34:23.225Z,8.98
2022-11-09T17:37:08.537Z,9.04
2022-11-09T17:39:53.886Z,8.93
2022-11-09T17:42:39.324Z,8.80
2022-11-09T17:45:24.480Z,8.94
2022-11-09T17:48:09.896Z,8.89
2022-11-09T17:50:57.959Z,8.74
2022-11-09T17:53:43.315Z,8.58
2022-11-09T17:56:29.098Z,8.56
2022-11-09T17:59:14.498Z,8.70
2022-11-09T18:01:59.734Z,8.77
2022-11-09T18:04:45.493Z,8.70
2022-11-09T18:07:31.154Z,8.71
2022-11-09T18:10:16.612Z,8.73
2022-11-09T18:13:02.233Z,8.83
2022-11-09T18:15:47.431Z,8.46
2022-11-09T18:18:33.310Z,8.50
2022-11-09T18:21:20.024Z,8.89
2022-11-09T18:24:05.947Z,9.09
2022-11-09T18:26:51.013Z,9.12
2022-11-09T18:29:36.394Z,9.09
2022-11-09T18:32:22.127Z,9.18
2022-11-09T18:35:07.572Z,9.26
2022-11-09T18:37:53.250Z,9.10
2022-11-09T18:40:38.472Z,9.30
2022-11-09T18:43:23.774Z,9.02
2022-11-09T18:46:12.362Z,9.25
2022-11-09T18:48:57.679Z,9.07
2022-11-09T18:51:44.129Z,9.07
2022-11-09T18:54:31.796Z,9.28
2022-11-09T18:57:19.860Z,9.37
2022-11-09T19:00:06.032Z,9.22
2022-11-09T19:02:51.595Z,9.04
2022-11-09T19:05:39.995Z,9.28
2022-11-09T19:08:44.050Z,9.21
2022-11-09T19:11:30.210Z,9.06
2022-11-09T19:14:15.639Z,8.81
2022-11-09T19:17:00.997Z,8.94
2022-11-09T19:19:46.637Z,9.13
2022-11-09T19:22:35.811Z,8.98
2022-11-09T19:25:20.936Z,9.19
2022-11-09T19:28:06.172Z,9.22
2022-11-09T19:30:51.368Z,8.89
2022-11-09T19:33:36.926Z,8.98
2022-11-09T19:36:31.025Z,8.56
2022-11-09T19:39:17.241Z,8.78
2022-11-09T19:42:02.727Z,8.83
2022-11-09T19:44:50.966Z,8.82
2022-11-09T19:47:40.490Z,8.59
2022-11-09T19:50:25.761Z,8.71
2022-11-09T19:53:11.139Z,8.81
2022-11-09T19:56:00.951Z,8.85
2022-11-09T19:58:53.931Z,8.95
2022-11-09T20:01:39.169Z,9.04
2022-11-09T20:04:24.422Z,9.03
2022-11-09T20:07:10.546Z,9.39
2022-11-09T20:09:56.058Z,9.26
2022-11-09T20:12:50.702Z,9.13
2022-11-09T20:15:36.553Z,9.04
2022-11-09T20:18:23.931Z,9.17
2022-11-09T20:21:09.071Z,9.00
2022-11-09T20:23:55.332Z,8.76
2022-11-09T20:26:41.127Z,8.99
2022-11-09T20:29:26.723Z,9.26
2022-11-09T20:32:12.403Z,9.35
2022-11-09T20:34:57.949Z,9.18
2022-11-09T20:37:43.237Z,9.43
2022-11-09T20:40:28.250Z,9.37
2022-11-09T20:43:13.673Z,9.42
2022-11-09T20:46:07.404Z,9.29
2022-11-09T20:48:54.896Z,9.20
2022-11-09T20:51:40.938Z,9.33
2022-11-09T20:54:26.179Z,9.13
2022-11-09T20:57:11.906Z,8.83
2022-11-09T20:59:57.013Z,8.81
2022-11-09T21:02:43.216Z,8.84
2022-11-09T21:05:28.677Z,8.72
2022-11-09T21:08:14.723Z,9.00
2022-11-09T21:11:05.013Z,8.96
2022-11-09T21:13:51.911Z,9.04
2022-11-09T21:16:37.036Z,9.18
2022-11-09T21:19:22.419Z,8.94
2022-11-09T21:22:07.839Z,9.03
2022-11-09T21:25:11.899Z,9.22
2022-11-09T21:28:15.710Z,9.04
2022-11-09T21:31:04.602Z,9.37
2022-11-09T21:33:52.884Z,9.38
2022-11-09T21:36:37.929Z,9.51
2022-11-09T21:39:23.297Z,9.33
2022-11-09T21:42:09.031Z,9.40
2022-11-09T21:44:54.489Z,9.48
2022-11-09T21:47:39.788Z,9.42
2022-11-09T21:50:25.062Z,9.39
2022-11-09T21:53:10.510Z,9.37
2022-11-09T21:55:55.824Z,9.40
2022-11-09T21:58:41.143Z,9.54
2022-11-09T22:01:26.859Z,9.31
2022-11-09T22:04:12.731Z,9.50
2022-11-09T22:06:58.515Z,9.45
2022-11-09T22:10:08.690Z,9.46
2022-11-09T22:13:08.031Z,9.55
2022-11-09T22:16:09.346Z,8.87
2022-11-09T22:19:13.196Z,9.15
2022-11-09T22:21:58.461Z,9.43
2022-11-09T22:24:43.931Z,9.43
2022-11-09T22:27:32.656Z,9.24
2022-11-09T22:30:17.942Z,9.37
2022-11-09T22:33:03.372Z,9.31
2022-11-09T22:35:56.398Z,9.29
2022-11-09T22:38:41.717Z,9.27
2022-11-09T22:41:26.941Z,8.92
2022-11-09T22:44:13.229Z,8.90
2022-11-09T22:46:58.557Z,8.87
2022-11-09T22:49:44.003Z,8.60
2022-11-09T22:52:29.145Z,8.94
2022-11-09T22:55:14.693Z,8.94
2022-11-09T22:58:00.172Z,8.79
2022-11-09T23:00:45.518Z,9.19
2022-11-09T23:03:30.755Z,9.08
2022-11-09T23:06:21.324Z,9.32
2022-11-09T23:09:06.483Z,9.45
2022-11-09T23:11:51.829Z,8.88
2022-11-09T23:14:55.744Z,9.29
2022-11-09T23:17:59.762Z,8.77
2022-11-09T23:20:45.162Z,8.78
2022-11-09T23:23:30.687Z,9.02
2022-11-09T23:26:16.293Z,8.59
2022-11-09T23:29:01.898Z,9.06
2022-11-09T23:31:47.181Z,8.76
2022-11-09T23:34:32.455Z,8.88
2022-11-09T23:37:17.960Z,8.93
2022-11-09T23:40:04.333Z,8.83
2022-11-09T23:42:49.586Z,8.84
2022-11-09T23:45:37.007Z,8.97
2022-11-09T23:48:22.052Z,8.78
2022-11-09T23:51:08.835Z,8.72
2022-11-09T23:53:54.401Z,8.50
2022-11-09T23:56:39.644Z,8.86
2022-11-09T23:59:25.173Z,8.46
